sensor_id;sensor_type;location;lat;lon;timestamp;P1;durP1;ratioP1;P2;durP2;ratioP2
27893;SDS011;15240;50.812;4.792;2022-10-16T00:00:31;2.17;;;1.20;;
27893;SDS011;15240;50.812;4.792;2022-10-16T00:02:58;2.60;;;1.20;;
27893;SDS011;15240;50.812;4.792;2022-10-16T00:05:24;4.37;;;1.27;;
27893;SDS011;15240;50.812;4.792;2022-10-16T00:07:50;2.80;;;1.30;;
27893;SDS011;15240;50.812;4.792;2022-10-16T00:10:17;3.50;;;1.40;;
27893;SDS011;15240;50.812;4.792;2022-10-16T00:12:43;2.87;;;1.60;;
27893;SDS011;15240;50.812;4.792;2022-10-16T00:15:09;3.33;;;1.67;;
27893;SDS011;15240;50.812;4.792;2022-10-16T00:17:36;4.57;;;1.77;;
27893;SDS011;15240;50.812;4.792;2022-10-16T00:20:02;3.83;;;1.80;;
27893;SDS011;15240;50.812;4.792;2022-10-16T00:22:29;3.93;;;1.40;;
27893;SDS011;15240;50.812;4.792;2022-10-16T00:24:55;3.10;;;1.60;;
27893;SDS011;15240;50.812;4.792;2022-10-16T00:27:21;3.67;;;1.60;;
27893;SDS011;15240;50.812;4.792;2022-10-16T00:29:50;4.17;;;1.50;;
27893;SDS011;15240;50.812;4.792;2022-10-16T00:32:17;3.37;;;1.80;;
27893;SDS011;15240;50.812;4.792;2022-10-16T00:34:43;4.83;;;1.90;;
27893;SDS011;15240;50.812;4.792;2022-10-16T00:37:10;6.17;;;1.93;;
27893;SDS011;15240;50.812;4.792;2022-10-16T00:39:36;4.80;;;1.90;;
27893;SDS011;15240;50.812;4.792;2022-10-16T00:42:03;4.30;;;2.10;;
27893;SDS011;15240;50.812;4.792;2022-10-16T00:49:50;5.77;;;2.00;;
27893;SDS011;15240;50.812;4.792;2022-10-16T00:52:17;4.87;;;2.03;;
27893;SDS011;15240;50.812;4.792;2022-10-16T00:54:43;6.13;;;2.10;;
27893;SDS011;15240;50.812;4.792;2022-10-16T00:57:11;4.80;;;2.23;;
27893;SDS011;15240;50.812;4.792;2022-10-16T00:59:39;5.63;;;2.10;;
27893;SDS011;15240;50.812;4.792;2022-10-16T01:02:06;4.37;;;2.00;;
27893;SDS011;15240;50.812;4.792;2022-10-16T01:04:42;4.30;;;2.43;;
27893;SDS011;15240;50.812;4.792;2022-10-16T01:12:12;6.13;;;2.30;;
27893;SDS011;15240;50.812;4.792;2022-10-16T01:14:53;6.13;;;2.30;;
27893;SDS011;15240;50.812;4.792;2022-10-16T01:17:43;6.47;;;2.40;;
27893;SDS011;15240;50.812;4.792;2022-10-16T01:20:13;6.07;;;2.10;;
27893;SDS011;15240;50.812;4.792;2022-10-16T01:23:02;6.80;;;2.30;;
27893;SDS011;15240;50.812;4.792;2022-10-16T01:25:39;6.10;;;2.47;;
27893;SDS011;15240;50.812;4.792;2022-10-16T01:28:09;6.77;;;2.47;;
27893;SDS011;15240;50.812;4.792;2022-10-16T01:30:37;7.47;;;2.50;;
27893;SDS011;15240;50.812;4.792;2022-10-16T01:35:57;6.07;;;2.70;;
27893;SDS011;15240;50.812;4.792;2022-10-16T01:38:26;7.77;;;2.13;;
27893;SDS011;15240;50.812;4.792;2022-10-16T01:40:56;5.20;;;2.33;;
27893;SDS011;15240;50.812;4.792;2022-10-16T01:43:25;7.00;;;2.70;;
27893;SDS011;15240;50.812;4.792;2022-10-16T01:45:52;7.20;;;2.50;;
27893;SDS011;15240;50.812;4.792;2022-10-16T01:48:19;9.80;;;2.60;;
27893;SDS011;15240;50.812;4.792;2022-10-16T01:50:57;5.13;;;2.60;;
27893;SDS011;15240;50.812;4.792;2022-10-16T01:53:26;4.93;;;2.23;;
27893;SDS011;15240;50.812;4.792;2022-10-16T01:55:52;8.00;;;2.70;;
27893;SDS011;15240;50.812;4.792;2022-10-16T01:58:21;5.17;;;2.80;;
27893;SDS011;15240;50.812;4.792;2022-10-16T02:00:48;6.90;;;2.70;;
27893;SDS011;15240;50.812;4.792;2022-10-16T02:03:18;6.00;;;2.73;;
27893;SDS011;15240;50.812;4.792;2022-10-16T02:05:46;6.93;;;2.93;;
27893;SDS011;15240;50.812;4.792;2022-10-16T02:08:12;9.03;;;3.20;;
27893;SDS011;15240;50.812;4.792;2022-10-16T02:10:39;8.57;;;3.17;;
27893;SDS011;15240;50.812;4.792;2022-10-16T02:13:10;7.37;;;3.10;;
27893;SDS011;15240;50.812;4.792;2022-10-16T02:15:37;7.73;;;3.40;;
27893;SDS011;15240;50.812;4.792;2022-10-16T02:18:04;7.73;;;3.77;;
27893;SDS011;15240;50.812;4.792;2022-10-16T02:20:32;11.87;;;3.60;;
27893;SDS011;15240;50.812;4.792;2022-10-16T02:22:59;6.57;;;3.23;;
27893;SDS011;15240;50.812;4.792;2022-10-16T02:25:29;8.87;;;3.70;;
27893;SDS011;15240;50.812;4.792;2022-10-16T02:28:01;8.13;;;4.20;;
27893;SDS011;15240;50.812;4.792;2022-10-16T02:30:33;10.43;;;4.23;;
27893;SDS011;15240;50.812;4.792;2022-10-16T02:33:01;11.23;;;4.30;;
27893;SDS011;15240;50.812;4.792;2022-10-16T02:35:28;11.60;;;4.57;;
27893;SDS011;15240;50.812;4.792;2022-10-16T02:37:54;12.20;;;4.00;;
27893;SDS011;15240;50.812;4.792;2022-10-16T02:40:21;9.07;;;3.77;;
27893;SDS011;15240;50.812;4.792;2022-10-16T02:42:50;10.83;;;4.27;;
27893;SDS011;15240;50.812;4.792;2022-10-16T02:45:18;8.60;;;3.70;;
27893;SDS011;15240;50.812;4.792;2022-10-16T02:47:45;8.27;;;3.43;;
27893;SDS011;15240;50.812;4.792;2022-10-16T02:50:11;10.87;;;3.67;;
27893;SDS011;15240;50.812;4.792;2022-10-16T02:52:37;7.30;;;3.93;;
27893;SDS011;15240;50.812;4.792;2022-10-16T02:55:04;9.97;;;4.10;;
27893;SDS011;15240;50.812;4.792;2022-10-16T02:57:30;10.37;;;3.77;;
27893;SDS011;15240;50.812;4.792;2022-10-16T02:59:57;7.17;;;3.57;;
27893;SDS011;15240;50.812;4.792;2022-10-16T03:02:23;9.30;;;3.97;;
27893;SDS011;15240;50.812;4.792;2022-10-16T03:04:49;10.70;;;4.00;;
27893;SDS011;15240;50.812;4.792;2022-10-16T03:07:15;10.73;;;3.90;;
27893;SDS011;15240;50.812;4.792;2022-10-16T03:09:41;12.67;;;4.27;;
27893;SDS011;15240;50.812;4.792;2022-10-16T03:12:07;11.33;;;4.23;;
27893;SDS011;15240;50.812;4.792;2022-10-16T03:14:33;9.83;;;3.80;;
27893;SDS011;15240;50.812;4.792;2022-10-16T03:16:59;10.03;;;3.77;;
27893;SDS011;15240;50.812;4.792;2022-10-16T03:19:25;8.37;;;3.87;;
27893;SDS011;15240;50.812;4.792;2022-10-16T03:21:51;12.83;;;4.13;;
27893;SDS011;15240;50.812;4.792;2022-10-16T03:24:19;7.27;;;3.70;;
27893;SDS011;15240;50.812;4.792;2022-10-16T03:26:45;8.10;;;3.80;;
27893;SDS011;15240;50.812;4.792;2022-10-16T03:29:12;6.83;;;3.40;;
27893;SDS011;15240;50.812;4.792;2022-10-16T03:31:40;7.57;;;3.77;;
27893;SDS011;15240;50.812;4.792;2022-10-16T03:34:07;7.13;;;3.50;;
27893;SDS011;15240;50.812;4.792;2022-10-16T03:36:34;9.93;;;3.70;;
27893;SDS011;15240;50.812;4.792;2022-10-16T03:39:00;10.00;;;3.87;;
27893;SDS011;15240;50.812;4.792;2022-10-16T03:41:26;9.00;;;3.83;;
27893;SDS011;15240;50.812;4.792;2022-10-16T03:43:52;7.50;;;3.73;;
27893;SDS011;15240;50.812;4.792;2022-10-16T03:46:18;10.80;;;4.10;;
27893;SDS011;15240;50.812;4.792;2022-10-16T03:48:44;9.40;;;4.10;;
27893;SDS011;15240;50.812;4.792;2022-10-16T03:51:10;8.60;;;4.00;;
27893;SDS011;15240;50.812;4.792;2022-10-16T03:53:36;10.00;;;4.27;;
27893;SDS011;15240;50.812;4.792;2022-10-16T03:56:02;6.63;;;3.90;;
27893;SDS011;15240;50.812;4.792;2022-10-16T03:58:28;8.30;;;3.87;;
27893;SDS011;15240;50.812;4.792;2022-10-16T04:00:55;9.13;;;4.17;;
27893;SDS011;15240;50.812;4.792;2022-10-16T04:03:21;6.17;;;3.70;;
27893;SDS011;15240;50.812;4.792;2022-10-16T04:05:48;8.20;;;4.30;;
27893;SDS011;15240;50.812;4.792;2022-10-16T04:08:14;11.03;;;4.20;;
27893;SDS011;15240;50.812;4.792;2022-10-16T04:10:44;8.33;;;4.13;;
27893;SDS011;15240;50.812;4.792;2022-10-16T04:13:10;8.40;;;4.63;;
27893;SDS011;15240;50.812;4.792;2022-10-16T04:15:37;8.67;;;3.90;;
27893;SDS011;15240;50.812;4.792;2022-10-16T04:18:04;8.00;;;4.60;;
27893;SDS011;15240;50.812;4.792;2022-10-16T04:20:30;8.97;;;4.40;;
27893;SDS011;15240;50.812;4.792;2022-10-16T04:22:57;7.33;;;4.10;;
27893;SDS011;15240;50.812;4.792;2022-10-16T04:25:25;7.13;;;4.03;;
27893;SDS011;15240;50.812;4.792;2022-10-16T04:27:55;7.33;;;4.23;;
27893;SDS011;15240;50.812;4.792;2022-10-16T04:30:24;8.40;;;4.87;;
27893;SDS011;15240;50.812;4.792;2022-10-16T04:32:51;6.87;;;4.13;;
27893;SDS011;15240;50.812;4.792;2022-10-16T04:35:18;8.77;;;4.37;;
27893;SDS011;15240;50.812;4.792;2022-10-16T04:37:44;9.13;;;3.90;;
27893;SDS011;15240;50.812;4.792;2022-10-16T04:40:10;7.10;;;4.27;;
27893;SDS011;15240;50.812;4.792;2022-10-16T04:42:37;8.03;;;3.83;;
27893;SDS011;15240;50.812;4.792;2022-10-16T04:45:05;7.80;;;4.13;;
27893;SDS011;15240;50.812;4.792;2022-10-16T04:47:33;12.90;;;4.60;;
27893;SDS011;15240;50.812;4.792;2022-10-16T04:49:59;8.03;;;3.97;;
27893;SDS011;15240;50.812;4.792;2022-10-16T04:52:27;9.47;;;4.17;;
27893;SDS011;15240;50.812;4.792;2022-10-16T04:54:53;9.07;;;4.30;;
27893;SDS011;15240;50.812;4.792;2022-10-16T04:57:21;9.73;;;4.70;;
27893;SDS011;15240;50.812;4.792;2022-10-16T04:59:47;8.43;;;4.00;;
27893;SDS011;15240;50.812;4.792;2022-10-16T05:02:13;9.23;;;4.40;;
27893;SDS011;15240;50.812;4.792;2022-10-16T05:04:39;9.60;;;4.77;;
27893;SDS011;15240;50.812;4.792;2022-10-16T05:07:05;13.97;;;4.73;;
27893;SDS011;15240;50.812;4.792;2022-10-16T05:09:31;7.60;;;4.37;;
27893;SDS011;15240;50.812;4.792;2022-10-16T05:11:57;10.37;;;4.83;;
27893;SDS011;15240;50.812;4.792;2022-10-16T05:14:23;10.33;;;5.50;;
27893;SDS011;15240;50.812;4.792;2022-10-16T05:16:49;11.67;;;5.13;;
27893;SDS011;15240;50.812;4.792;2022-10-16T05:19:18;8.47;;;5.00;;
27893;SDS011;15240;50.812;4.792;2022-10-16T05:21:44;12.00;;;5.30;;
27893;SDS011;15240;50.812;4.792;2022-10-16T05:24:10;10.03;;;5.13;;
27893;SDS011;15240;50.812;4.792;2022-10-16T05:26:36;10.87;;;5.13;;
27893;SDS011;15240;50.812;4.792;2022-10-16T05:29:03;12.07;;;5.23;;
27893;SDS011;15240;50.812;4.792;2022-10-16T05:31:29;10.27;;;5.50;;
27893;SDS011;15240;50.812;4.792;2022-10-16T05:33:58;10.33;;;5.40;;
27893;SDS011;15240;50.812;4.792;2022-10-16T05:36:26;9.53;;;5.33;;
27893;SDS011;15240;50.812;4.792;2022-10-16T05:38:52;12.27;;;5.30;;
27893;SDS011;15240;50.812;4.792;2022-10-16T05:41:18;12.90;;;5.13;;
27893;SDS011;15240;50.812;4.792;2022-10-16T05:43:46;13.27;;;5.50;;
27893;SDS011;15240;50.812;4.792;2022-10-16T05:46:13;13.13;;;5.27;;
27893;SDS011;15240;50.812;4.792;2022-10-16T05:48:39;11.90;;;5.50;;
27893;SDS011;15240;50.812;4.792;2022-10-16T05:51:06;9.23;;;5.17;;
27893;SDS011;15240;50.812;4.792;2022-10-16T05:53:32;9.67;;;5.50;;
27893;SDS011;15240;50.812;4.792;2022-10-16T05:55:59;9.93;;;5.33;;
27893;SDS011;15240;50.812;4.792;2022-10-16T05:58:25;11.90;;;5.90;;
27893;SDS011;15240;50.812;4.792;2022-10-16T06:00:57;10.73;;;5.40;;
27893;SDS011;15240;50.812;4.792;2022-10-16T06:03:24;12.20;;;5.43;;
27893;SDS011;15240;50.812;4.792;2022-10-16T06:05:50;10.73;;;5.50;;
27893;SDS011;15240;50.812;4.792;2022-10-16T06:08:17;10.43;;;5.87;;
27893;SDS011;15240;50.812;4.792;2022-10-16T06:10:44;9.80;;;5.60;;
27893;SDS011;15240;50.812;4.792;2022-10-16T06:13:11;10.27;;;5.43;;
27893;SDS011;15240;50.812;4.792;2022-10-16T06:15:38;13.10;;;5.73;;
27893;SDS011;15240;50.812;4.792;2022-10-16T06:18:04;12.67;;;5.93;;
27893;SDS011;15240;50.812;4.792;2022-10-16T06:20:30;8.50;;;6.00;;
27893;SDS011;15240;50.812;4.792;2022-10-16T06:22:57;11.93;;;6.03;;
27893;SDS011;15240;50.812;4.792;2022-10-16T06:25:22;16.77;;;6.50;;
27893;SDS011;15240;50.812;4.792;2022-10-16T06:27:48;15.23;;;7.00;;
27893;SDS011;15240;50.812;4.792;2022-10-16T06:30:15;14.17;;;6.70;;
27893;SDS011;15240;50.812;4.792;2022-10-16T06:32:41;11.10;;;6.60;;
27893;SDS011;15240;50.812;4.792;2022-10-16T06:35:07;13.30;;;6.73;;
27893;SDS011;15240;50.812;4.792;2022-10-16T06:37:33;13.33;;;6.33;;
27893;SDS011;15240;50.812;4.792;2022-10-16T06:39:59;13.47;;;7.10;;
27893;SDS011;15240;50.812;4.792;2022-10-16T06:42:25;11.87;;;7.43;;
27893;SDS011;15240;50.812;4.792;2022-10-16T06:44:51;11.63;;;7.00;;
27893;SDS011;15240;50.812;4.792;2022-10-16T06:47:18;14.17;;;7.30;;
27893;SDS011;15240;50.812;4.792;2022-10-16T06:49:44;13.23;;;7.43;;
27893;SDS011;15240;50.812;4.792;2022-10-16T06:52:10;9.73;;;6.47;;
27893;SDS011;15240;50.812;4.792;2022-10-16T06:54:36;12.47;;;7.07;;
27893;SDS011;15240;50.812;4.792;2022-10-16T06:57:03;13.90;;;6.90;;
27893;SDS011;15240;50.812;4.792;2022-10-16T06:59:29;11.67;;;7.10;;
27893;SDS011;15240;50.812;4.792;2022-10-16T07:01:55;12.03;;;7.03;;
27893;SDS011;15240;50.812;4.792;2022-10-16T07:04:21;11.03;;;5.83;;
27893;SDS011;15240;50.812;4.792;2022-10-16T07:06:47;13.47;;;7.07;;
27893;SDS011;15240;50.812;4.792;2022-10-16T07:09:13;11.77;;;9.05;;
27893;SDS011;15240;50.812;4.792;2022-10-16T07:11:39;9.97;;;6.03;;
27893;SDS011;15240;50.812;4.792;2022-10-16T07:14:15;10.30;;;5.43;;
27893;SDS011;15240;50.812;4.792;2022-10-16T07:16:42;9.50;;;5.70;;
27893;SDS011;15240;50.812;4.792;2022-10-16T07:19:08;12.10;;;5.40;;
27893;SDS011;15240;50.812;4.792;2022-10-16T07:21:34;10.57;;;4.17;;
27893;SDS011;15240;50.812;4.792;2022-10-16T07:24:00;6.50;;;4.13;;
27893;SDS011;15240;50.812;4.792;2022-10-16T07:26:27;7.33;;;3.90;;
27893;SDS011;15240;50.812;4.792;2022-10-16T07:28:54;7.80;;;4.13;;
27893;SDS011;15240;50.812;4.792;2022-10-16T07:31:22;5.27;;;3.60;;
27893;SDS011;15240;50.812;4.792;2022-10-16T07:33:48;6.43;;;3.10;;
27893;SDS011;15240;50.812;4.792;2022-10-16T07:36:15;5.43;;;3.27;;
27893;SDS011;15240;50.812;4.792;2022-10-16T07:38:42;7.80;;;3.63;;
27893;SDS011;15240;50.812;4.792;2022-10-16T07:41:10;8.33;;;3.27;;
27893;SDS011;15240;50.812;4.792;2022-10-16T07:43:36;7.10;;;3.20;;
27893;SDS011;15240;50.812;4.792;2022-10-16T07:46:02;6.70;;;3.73;;
27893;SDS011;15240;50.812;4.792;2022-10-16T07:48:29;7.67;;;3.50;;
27893;SDS011;15240;50.812;4.792;2022-10-16T07:50:59;7.40;;;3.25;;
27893;SDS011;15240;50.812;4.792;2022-10-16T07:53:25;8.13;;;3.30;;
27893;SDS011;15240;50.812;4.792;2022-10-16T07:55:52;4.63;;;2.90;;
27893;SDS011;15240;50.812;4.792;2022-10-16T07:58:18;7.80;;;3.35;;
27893;SDS011;15240;50.812;4.792;2022-10-16T08:00:44;5.82;;;2.92;;
27893;SDS011;15240;50.812;4.792;2022-10-16T08:03:10;6.13;;;3.50;;
27893;SDS011;15240;50.812;4.792;2022-10-16T08:05:36;7.60;;;3.10;;
27893;SDS011;15240;50.812;4.792;2022-10-16T08:08:02;6.55;;;3.20;;
27893;SDS011;15240;50.812;4.792;2022-10-16T08:10:29;8.38;;;3.10;;
27893;SDS011;15240;50.812;4.792;2022-10-16T08:12:56;6.45;;;3.30;;
27893;SDS011;15240;50.812;4.792;2022-10-16T08:15:22;6.03;;;2.88;;
27893;SDS011;15240;50.812;4.792;2022-10-16T08:17:58;4.03;;;2.15;;
27893;SDS011;15240;50.812;4.792;2022-10-16T08:20:25;5.13;;;2.45;;
27893;SDS011;15240;50.812;4.792;2022-10-16T08:22:51;6.80;;;2.58;;
27893;SDS011;15240;50.812;4.792;2022-10-16T08:25:17;5.10;;;2.17;;
27893;SDS011;15240;50.812;4.792;2022-10-16T08:27:43;7.90;;;2.40;;
27893;SDS011;15240;50.812;4.792;2022-10-16T08:30:10;3.33;;;1.98;;
27893;SDS011;15240;50.812;4.792;2022-10-16T08:32:36;5.88;;;1.92;;
27893;SDS011;15240;50.812;4.792;2022-10-16T08:35:02;7.40;;;1.95;;
27893;SDS011;15240;50.812;4.792;2022-10-16T08:37:31;2.75;;;1.77;;
27893;SDS011;15240;50.812;4.792;2022-10-16T08:39:58;4.32;;;1.50;;
27893;SDS011;15240;50.812;4.792;2022-10-16T08:42:33;3.63;;;1.90;;
27893;SDS011;15240;50.812;4.792;2022-10-16T08:47:49;3.22;;;1.48;;
27893;SDS011;15240;50.812;4.792;2022-10-16T08:50:21;2.65;;;1.58;;
27893;SDS011;15240;50.812;4.792;2022-10-16T08:52:47;3.30;;;1.52;;
27893;SDS011;15240;50.812;4.792;2022-10-16T08:57:59;4.88;;;1.65;;
27893;SDS011;15240;50.812;4.792;2022-10-16T09:00:26;3.45;;;1.42;;
27893;SDS011;15240;50.812;4.792;2022-10-16T09:03:16;4.80;;;1.80;;
27893;SDS011;15240;50.812;4.792;2022-10-16T09:18:59;5.47;;;1.83;;
27893;SDS011;15240;50.812;4.792;2022-10-16T09:21:30;3.20;;;1.70;;
27893;SDS011;15240;50.812;4.792;2022-10-16T09:23:58;5.33;;;1.60;;
27893;SDS011;15240;50.812;4.792;2022-10-16T09:26:25;6.63;;;1.97;;
27893;SDS011;15240;50.812;4.792;2022-10-16T09:28:51;3.33;;;1.60;;
27893;SDS011;15240;50.812;4.792;2022-10-16T09:31:18;4.50;;;1.50;;
27893;SDS011;15240;50.812;4.792;2022-10-16T09:33:46;6.13;;;1.77;;
27893;SDS011;15240;50.812;4.792;2022-10-16T09:36:12;4.53;;;1.90;;
27893;SDS011;15240;50.812;4.792;2022-10-16T09:38:39;5.57;;;1.73;;
27893;SDS011;15240;50.812;4.792;2022-10-16T09:41:39;4.13;;;1.47;;
27893;SDS011;15240;50.812;4.792;2022-10-16T09:43:58;3.57;;;1.70;;
27893;SDS011;15240;50.812;4.792;2022-10-16T09:46:27;5.57;;;1.87;;
27893;SDS011;15240;50.812;4.792;2022-10-16T09:49:16;7.47;;;1.83;;
27893;SDS011;15240;50.812;4.792;2022-10-16T09:51:44;6.20;;;2.17;;
27893;SDS011;15240;50.812;4.792;2022-10-16T09:56:36;3.27;;;1.77;;
27893;SDS011;15240;50.812;4.792;2022-10-16T09:59:13;5.73;;;1.60;;
27893;SDS011;15240;50.812;4.792;2022-10-16T10:01:47;6.63;;;1.60;;
27893;SDS011;15240;50.812;4.792;2022-10-16T10:04:13;4.83;;;1.57;;
27893;SDS011;15240;50.812;4.792;2022-10-16T10:06:44;4.87;;;1.50;;
27893;SDS011;15240;50.812;4.792;2022-10-16T10:09:19;5.37;;;1.53;;
27893;SDS011;15240;50.812;4.792;2022-10-16T10:14:22;5.33;;;1.20;;
27893;SDS011;15240;50.812;4.792;2022-10-16T10:16:49;5.03;;;1.50;;
27893;SDS011;15240;50.812;4.792;2022-10-16T10:19:20;3.70;;;1.40;;
27893;SDS011;15240;50.812;4.792;2022-10-16T10:21:46;5.30;;;1.50;;
27893;SDS011;15240;50.812;4.792;2022-10-16T10:24:13;5.80;;;1.47;;
27893;SDS011;15240;50.812;4.792;2022-10-16T10:26:41;3.00;;;1.10;;
27893;SDS011;15240;50.812;4.792;2022-10-16T10:29:30;5.27;;;1.57;;
27893;SDS011;15240;50.812;4.792;2022-10-16T10:32:02;6.00;;;1.10;;
27893;SDS011;15240;50.812;4.792;2022-10-16T10:39:52;3.47;;;1.00;;
27893;SDS011;15240;50.812;4.792;2022-10-16T10:44:57;4.33;;;1.20;;
27893;SDS011;15240;50.812;4.792;2022-10-16T10:57:55;3.97;;;1.30;;
27893;SDS011;15240;50.812;4.792;2022-10-16T11:00:28;3.63;;;1.07;;
27893;SDS011;15240;50.812;4.792;2022-10-16T11:03:11;5.43;;;1.43;;
27893;SDS011;15240;50.812;4.792;2022-10-16T11:10:52;3.30;;;1.03;;
27893;SDS011;15240;50.812;4.792;2022-10-16T11:15:48;6.10;;;1.30;;
27893;SDS011;15240;50.812;4.792;2022-10-16T11:20:48;3.17;;;0.97;;
27893;SDS011;15240;50.812;4.792;2022-10-16T11:23:21;4.80;;;1.10;;
27893;SDS011;15240;50.812;4.792;2022-10-16T11:25:49;3.53;;;1.03;;
27893;SDS011;15240;50.812;4.792;2022-10-16T11:31:19;4.70;;;1.30;;
27893;SDS011;15240;50.812;4.792;2022-10-16T11:33:41;2.77;;;0.90;;
27893;SDS011;15240;50.812;4.792;2022-10-16T11:36:15;6.30;;;1.17;;
27893;SDS011;15240;50.812;4.792;2022-10-16T11:46:29;3.43;;;1.07;;
27893;SDS011;15240;50.812;4.792;2022-10-16T11:49:00;3.60;;;0.93;;
27893;SDS011;15240;50.812;4.792;2022-10-16T11:51:31;2.67;;;0.97;;
27893;SDS011;15240;50.812;4.792;2022-10-16T11:54:02;5.20;;;1.00;;
27893;SDS011;15240;50.812;4.792;2022-10-16T11:56:30;5.27;;;1.13;;
27893;SDS011;15240;50.812;4.792;2022-10-16T12:04:04;5.40;;;0.90;;
27893;SDS011;15240;50.812;4.792;2022-10-16T12:06:34;2.70;;;0.90;;
27893;SDS011;15240;50.812;4.792;2022-10-16T12:09:01;2.50;;;0.80;;
27893;SDS011;15240;50.812;4.792;2022-10-16T12:14:07;3.80;;;0.80;;
27893;SDS011;15240;50.812;4.792;2022-10-16T12:16:56;3.87;;;0.90;;
27893;SDS011;15240;50.812;4.792;2022-10-16T12:19:24;3.20;;;0.90;;
27893;SDS011;15240;50.812;4.792;2022-10-16T12:21:50;4.10;;;0.70;;
27893;SDS011;15240;50.812;4.792;2022-10-16T12:24:38;3.00;;;0.85;;
27893;SDS011;15240;50.812;4.792;2022-10-16T12:27:04;4.05;;;1.20;;
27893;SDS011;15240;50.812;4.792;2022-10-16T12:29:35;5.00;;;1.15;;
27893;SDS011;15240;50.812;4.792;2022-10-16T12:32:02;5.65;;;1.00;;
27893;SDS011;15240;50.812;4.792;2022-10-16T12:34:31;6.75;;;1.70;;
27893;SDS011;15240;50.812;4.792;2022-10-16T12:39:37;5.60;;;1.48;;
27893;SDS011;15240;50.812;4.792;2022-10-16T12:42:04;5.13;;;1.45;;
27893;SDS011;15240;50.812;4.792;2022-10-16T12:44:32;4.40;;;1.40;;
27893;SDS011;15240;50.812;4.792;2022-10-16T12:46:58;6.10;;;1.63;;
27893;SDS011;15240;50.812;4.792;2022-10-16T12:51:54;7.00;;;1.20;;
27893;SDS011;15240;50.812;4.792;2022-10-16T12:59:30;7.18;;;1.48;;
27893;SDS011;15240;50.812;4.792;2022-10-16T13:05:06;3.30;;;1.38;;
27893;SDS011;15240;50.812;4.792;2022-10-16T13:13:22;2.97;;;0.90;;
27893;SDS011;15240;50.812;4.792;2022-10-16T13:15:54;3.45;;;0.77;;
27893;SDS011;15240;50.812;4.792;2022-10-16T13:26:12;5.38;;;0.65;;
27893;SDS011;15240;50.812;4.792;2022-10-16T13:28:41;2.17;;;0.50;;
27893;SDS011;15240;50.812;4.792;2022-10-16T13:31:15;2.60;;;0.60;;
27893;SDS011;15240;50.812;4.792;2022-10-16T13:33:43;3.00;;;0.60;;
27893;SDS011;15240;50.812;4.792;2022-10-16T13:36:20;3.08;;;0.70;;
27893;SDS011;15240;50.812;4.792;2022-10-16T13:38:46;3.50;;;0.80;;
27893;SDS011;15240;50.812;4.792;2022-10-16T13:41:16;3.10;;;0.80;;
27893;SDS011;15240;50.812;4.792;2022-10-16T13:43:43;4.80;;;1.30;;
27893;SDS011;15240;50.812;4.792;2022-10-16T13:46:15;4.78;;;2.13;;
27893;SDS011;15240;50.812;4.792;2022-10-16T13:48:41;4.47;;;1.80;;
27893;SDS011;15240;50.812;4.792;2022-10-16T13:51:14;6.15;;;1.88;;
27893;SDS011;15240;50.812;4.792;2022-10-16T13:53:41;4.88;;;1.08;;
27893;SDS011;15240;50.812;4.792;2022-10-16T13:56:10;6.18;;;1.00;;
27893;SDS011;15240;50.812;4.792;2022-10-16T13:58:36;2.92;;;0.90;;
27893;SDS011;15240;50.812;4.792;2022-10-16T14:01:03;3.53;;;0.77;;
27893;SDS011;15240;50.812;4.792;2022-10-16T14:03:30;4.63;;;1.10;;
27893;SDS011;15240;50.812;4.792;2022-10-16T14:06:00;1.75;;;0.70;;
27893;SDS011;15240;50.812;4.792;2022-10-16T14:08:27;4.67;;;1.00;;
27893;SDS011;15240;50.812;4.792;2022-10-16T14:10:55;3.23;;;0.70;;
27893;SDS011;15240;50.812;4.792;2022-10-16T14:13:31;2.20;;;1.00;;
27893;SDS011;15240;50.812;4.792;2022-10-16T14:15:58;5.23;;;1.00;;
27893;SDS011;15240;50.812;4.792;2022-10-16T14:18:26;2.37;;;0.87;;
27893;SDS011;15240;50.812;4.792;2022-10-16T14:20:53;4.37;;;0.80;;
27893;SDS011;15240;50.812;4.792;2022-10-16T14:23:21;4.80;;;0.93;;
27893;SDS011;15240;50.812;4.792;2022-10-16T14:25:48;3.70;;;0.57;;
27893;SDS011;15240;50.812;4.792;2022-10-16T14:28:15;2.43;;;0.60;;
27893;SDS011;15240;50.812;4.792;2022-10-16T14:30:58;2.20;;;0.70;;
27893;SDS011;15240;50.812;4.792;2022-10-16T14:36:24;4.20;;;0.70;;
27893;SDS011;15240;50.812;4.792;2022-10-16T14:39:05;2.40;;;0.70;;
27893;SDS011;15240;50.812;4.792;2022-10-16T14:41:32;3.40;;;0.90;;
27893;SDS011;15240;50.812;4.792;2022-10-16T14:44:06;3.63;;;0.90;;
27893;SDS011;15240;50.812;4.792;2022-10-16T14:46:35;2.43;;;0.70;;
27893;SDS011;15240;50.812;4.792;2022-10-16T14:51:35;2.97;;;0.70;;
27893;SDS011;15240;50.812;4.792;2022-10-16T14:54:01;1.47;;;0.60;;
27893;SDS011;15240;50.812;4.792;2022-10-16T14:56:32;2.37;;;0.60;;
27893;SDS011;15240;50.812;4.792;2022-10-16T14:58:59;4.73;;;0.80;;
27893;SDS011;15240;50.812;4.792;2022-10-16T15:01:26;2.22;;;0.70;;
27893;SDS011;15240;50.812;4.792;2022-10-16T15:03:52;2.33;;;0.70;;
27893;SDS011;15240;50.812;4.792;2022-10-16T15:06:19;2.30;;;0.90;;
27893;SDS011;15240;50.812;4.792;2022-10-16T15:08:47;2.83;;;0.90;;
27893;SDS011;15240;50.812;4.792;2022-10-16T15:11:14;3.97;;;0.77;;
27893;SDS011;15240;50.812;4.792;2022-10-16T15:13:41;3.37;;;0.90;;
27893;SDS011;15240;50.812;4.792;2022-10-16T15:16:16;4.50;;;1.00;;
27893;SDS011;15240;50.812;4.792;2022-10-16T15:18:43;2.40;;;0.80;;
27893;SDS011;15240;50.812;4.792;2022-10-16T15:21:15;1.97;;;1.00;;
27893;SDS011;15240;50.812;4.792;2022-10-16T15:23:46;3.33;;;0.90;;
27893;SDS011;15240;50.812;4.792;2022-10-16T15:26:14;3.20;;;0.80;;
27893;SDS011;15240;50.812;4.792;2022-10-16T15:28:40;2.63;;;1.07;;
27893;SDS011;15240;50.812;4.792;2022-10-16T15:31:07;3.03;;;1.10;;
27893;SDS011;15240;50.812;4.792;2022-10-16T15:33:33;3.90;;;1.20;;
27893;SDS011;15240;50.812;4.792;2022-10-16T15:36:00;2.70;;;1.30;;
27893;SDS011;15240;50.812;4.792;2022-10-16T15:38:27;4.63;;;1.40;;
27893;SDS011;15240;50.812;4.792;2022-10-16T15:40:53;3.63;;;1.30;;
27893;SDS011;15240;50.812;4.792;2022-10-16T15:43:19;3.07;;;1.30;;
27893;SDS011;15240;50.812;4.792;2022-10-16T15:46:05;5.60;;;1.10;;
27893;SDS011;15240;50.812;4.792;2022-10-16T15:48:31;3.80;;;1.30;;
27893;SDS011;15240;50.812;4.792;2022-10-16T15:50:57;5.43;;;1.27;;
27893;SDS011;15240;50.812;4.792;2022-10-16T15:53:23;5.43;;;1.47;;
27893;SDS011;15240;50.812;4.792;2022-10-16T15:55:50;4.27;;;1.07;;
27893;SDS011;15240;50.812;4.792;2022-10-16T15:58:16;2.50;;;1.27;;
27893;SDS011;15240;50.812;4.792;2022-10-16T16:00:42;3.60;;;1.40;;
27893;SDS011;15240;50.812;4.792;2022-10-16T16:03:08;2.13;;;1.33;;
27893;SDS011;15240;50.812;4.792;2022-10-16T16:05:37;3.67;;;1.40;;
27893;SDS011;15240;50.812;4.792;2022-10-16T16:08:03;5.97;;;1.50;;
27893;SDS011;15240;50.812;4.792;2022-10-16T16:10:30;3.57;;;1.40;;
27893;SDS011;15240;50.812;4.792;2022-10-16T16:12:56;3.37;;;1.27;;
27893;SDS011;15240;50.812;4.792;2022-10-16T16:15:22;4.53;;;1.90;;
27893;SDS011;15240;50.812;4.792;2022-10-16T16:17:49;38.63;;;17.93;;
27893;SDS011;15240;50.812;4.792;2022-10-16T16:20:15;63.43;;;40.83;;
27893;SDS011;15240;50.812;4.792;2022-10-16T16:22:41;7.53;;;4.10;;
27893;SDS011;15240;50.812;4.792;2022-10-16T16:25:07;4.37;;;3.97;;
27893;SDS011;15240;50.812;4.792;2022-10-16T16:27:33;5.13;;;1.87;;
27893;SDS011;15240;50.812;4.792;2022-10-16T16:30:02;5.87;;;2.70;;
27893;SDS011;15240;50.812;4.792;2022-10-16T16:32:28;3.83;;;1.93;;
27893;SDS011;15240;50.812;4.792;2022-10-16T16:34:55;3.90;;;2.67;;
27893;SDS011;15240;50.812;4.792;2022-10-16T16:37:21;6.60;;;2.90;;
27893;SDS011;15240;50.812;4.792;2022-10-16T16:39:47;3.10;;;2.00;;
27893;SDS011;15240;50.812;4.792;2022-10-16T16:42:13;8.50;;;4.10;;
27893;SDS011;15240;50.812;4.792;2022-10-16T16:44:39;6.10;;;3.83;;
27893;SDS011;15240;50.812;4.792;2022-10-16T16:47:05;5.00;;;3.43;;